Time;durP1;ratioP1;P1;durP2;ratioP2;P2;SDS_P1;SDS_P2;PMS_P1;PMS_P2;Temp;Humidity;BMP_temperature;BMP_pressure;BME280_temperature;BME280_humidity;BME280_pressure;Samples;Min_cycle;Max_cycle;Signal;HPM_P1;HPM_P2
2022/11/03 00:01:06;;;;;;;5.10;4.53;;;10.00;86.90;;;;;;5085674;28;20765;-50
2022/11/03 00:03:32;;;;;;;6.83;4.50;;;10.00;87.00;;;;;;5079362;28;21001;-46
2022/11/03 00:06:04;;;;;;;7.40;4.60;;;10.00;87.10;;;;;;5082499;28;20465;-45
2022/11/03 00:08:40;;;;;;;5.80;4.20;;;10.00;87.30;;;;;;5119899;28;20185;-46
2022/11/03 00:11:13;;;;;;;4.87;4.27;;;10.00;87.40;;;;;;5120025;28;20445;-45
2022/11/03 00:13:41;;;;;;;4.90;3.70;;;9.90;88.90;;;;;;5119928;28;20513;-46
2022/11/03 00:16:09;;;;;;;5.03;4.00;;;9.90;89.00;;;;;;5120080;28;20418;-48
2022/11/03 00:18:34;;;;;;;6.90;4.57;;;9.90;89.20;;;;;;5119265;28;20831;-44
2022/11/03 00:21:05;;;;;;;5.33;4.83;;;9.90;89.30;;;;;;5091270;28;20466;-47
2022/11/03 00:23:34;;;;;;;5.20;3.60;;;9.90;89.50;;;;;;5079155;28;20170;-44
2022/11/03 00:26:19;;;;;;;6.00;4.83;;;9.80;89.50;;;;;;5078853;28;20424;-44
2022/11/03 00:28:47;;;;;;;5.90;4.30;;;9.80;89.60;;;;;;5079127;28;20399;-43
2022/11/03 00:31:14;;;;;;;4.63;4.10;;;9.80;89.60;;;;;;5078479;28;20428;-45
2022/11/03 00:33:41;;;;;;;6.77;4.40;;;9.80;89.70;;;;;;5078982;28;20447;-46
2022/11/03 00:36:09;;;;;;;4.70;4.07;;;9.70;89.60;;;;;;5061859;28;20424;-45
2022/11/03 00:38:36;;;;;;;6.20;4.30;;;9.70;89.70;;;;;;5078132;28;20478;-45
2022/11/03 00:41:03;;;;;;;7.63;4.63;;;9.70;89.80;;;;;;5078310;28;20472;-44
2022/11/03 00:43:30;;;;;;;4.60;3.80;;;9.70;90.00;;;;;;5078268;28;20408;-45
2022/11/03 00:45:57;;;;;;;5.40;3.83;;;9.70;90.00;;;;;;5078694;28;20538;-44
2022/11/03 00:48:28;;;;;;;5.93;3.70;;;9.60;90.00;;;;;;5078587;28;20895;-44
2022/11/03 00:51:10;;;;;;;8.80;4.10;;;9.60;90.10;;;;;;5077847;28;20432;-44
2022/11/03 00:53:47;;;;;;;3.97;3.13;;;9.60;90.50;;;;;;5078904;28;20506;-47
2022/11/03 00:56:17;;;;;;;7.50;3.63;;;9.60;90.30;;;;;;5077096;28;20438;-48
2022/11/03 00:58:43;;;;;;;7.63;3.87;;;9.50;90.30;;;;;;5075860;28;20437;-45
2022/11/03 01:01:11;;;;;;;6.83;4.10;;;9.50;90.40;;;;;;5057479;28;20475;-45
2022/11/03 01:03:40;;;;;;;6.03;3.50;;;9.50;90.40;;;;;;5076547;28;20460;-47
2022/11/03 01:08:55;;;;;;;5.00;3.73;;;9.50;90.60;;;;;;5075375;28;20412;-46
2022/11/03 01:14:08;;;;;;;4.87;3.10;;;9.40;90.60;;;;;;5076631;28;20188;-46
2022/11/03 01:16:34;;;;;;;5.40;3.40;;;9.40;90.70;;;;;;5076456;28;20481;-45
2022/11/03 01:19:00;;;;;;;4.77;3.43;;;9.40;90.70;;;;;;5077047;28;20849;-45
2022/11/03 01:21:25;;;;;;;5.90;3.93;;;9.40;90.80;;;;;;5059863;28;20603;-47
2022/11/03 01:23:51;;;;;;;4.20;3.60;;;9.40;90.80;;;;;;5077266;28;20191;-48
2022/11/03 01:26:17;;;;;;;4.77;3.00;;;9.40;90.90;;;;;;5076510;28;20178;-45
2022/11/03 01:28:44;;;;;;;4.13;3.37;;;9.30;90.80;;;;;;5076856;28;20259;-46
2022/11/03 01:31:18;;;;;;;3.77;3.10;;;9.30;90.80;;;;;;5076250;28;20465;-44
2022/11/03 01:33:45;;;;;;;4.00;3.23;;;9.30;90.80;;;;;;5076607;28;20705;-46
2022/11/03 01:36:11;;;;;;;4.80;2.90;;;9.20;90.80;;;;;;5076840;28;20432;-44
2022/11/03 01:38:37;;;;;;;4.83;3.37;;;9.20;90.80;;;;;;5059996;28;20420;-46
2022/11/03 01:41:04;;;;;;;5.03;4.23;;;9.20;90.80;;;;;;5068617;28;20528;-47
2022/11/03 01:43:33;;;;;;;4.43;3.20;;;9.20;90.80;;;;;;5077497;28;20183;-45
2022/11/03 01:46:13;;;;;;;6.00;3.70;;;9.10;90.70;;;;;;5077297;28;20431;-47
2022/11/03 01:48:42;;;;;;;4.00;3.10;;;9.10;90.70;;;;;;5077132;28;20743;-45
2022/11/03 01:51:08;;;;;;;6.17;3.73;;;9.10;90.60;;;;;;5059362;28;20435;-46
2022/11/03 01:53:34;;;;;;;5.17;3.80;;;9.00;90.60;;;;;;5059498;28;20431;-46
2022/11/03 01:56:01;;;;;;;4.07;3.37;;;9.00;90.60;;;;;;5059484;28;20454;-45
2022/11/03 01:58:33;;;;;;;6.00;3.70;;;8.90;90.50;;;;;;5077222;28;20475;-45
2022/11/03 02:00:59;;;;;;;5.33;3.60;;;8.90;90.60;;;;;;5077620;28;20467;-43
2022/11/03 02:03:26;;;;;;;5.60;3.20;;;8.90;90.60;;;;;;5077893;28;20815;-45
2022/11/03 02:05:53;;;;;;;5.60;3.63;;;8.90;90.60;;;;;;5077370;28;20791;-47
2022/11/03 02:08:22;;;;;;;6.27;4.60;;;8.90;90.60;;;;;;5077445;28;20678;-46
2022/11/03 02:10:48;;;;;;;4.40;3.53;;;8.80;90.60;;;;;;5077486;28;20426;-48
2022/11/03 02:13:26;;;;;;;3.87;3.30;;;8.80;90.60;;;;;;5077511;28;20415;-45
2022/11/03 02:15:55;;;;;;;5.80;3.17;;;8.80;90.60;;;;;;5076754;28;20446;-47
2022/11/03 02:18:27;;;;;;;5.43;3.20;;;8.80;90.70;;;;;;5058988;28;20439;-45
2022/11/03 02:21:18;;;;;;;5.70;3.83;;;8.70;90.70;;;;;;5059714;28;20506;-47
2022/11/03 02:23:58;;;;;;;4.40;3.60;;;8.70;90.70;;;;;;5077715;28;20481;-47
2022/11/03 02:26:24;;;;;;;4.97;3.83;;;8.70;90.80;;;;;;5058895;28;20729;-44
2022/11/03 02:28:50;;;;;;;6.17;3.60;;;8.70;90.90;;;;;;5059964;28;20428;-46
2022/11/03 02:31:25;;;;;;;5.73;3.47;;;8.70;90.90;;;;;;5080653;28;20531;-44
2022/11/03 02:33:53;;;;;;;6.50;4.03;;;8.60;90.80;;;;;;5062035;28;20310;-44
2022/11/03 02:36:36;;;;;;;4.60;3.27;;;8.60;90.80;;;;;;5079883;28;20432;-46
2022/11/03 02:39:24;;;;;;;4.40;3.20;;;8.60;90.90;;;;;;5080036;28;20741;-44
2022/11/03 02:41:52;;;;;;;4.60;3.33;;;8.50;90.80;;;;;;5062485;28;20585;-46
2022/11/03 02:47:41;;;;;;;4.10;3.37;;;8.50;90.90;;;;;;5080487;28;20405;-48
2022/11/03 02:50:09;;;;;;;4.73;3.83;;;8.50;90.90;;;;;;5081135;28;20417;-45
2022/11/03 02:52:42;;;;;;;4.20;3.40;;;8.50;91.00;;;;;;5081066;28;20424;-45
2022/11/03 02:55:14;;;;;;;5.60;3.20;;;8.50;91.10;;;;;;5078066;28;20426;-44
2022/11/03 02:57:46;;;;;;;5.00;3.53;;;8.50;91.10;;;;;;5077737;28;20473;-46
2022/11/03 03:00:12;;;;;;;5.60;3.33;;;8.40;91.10;;;;;;5078037;28;20491;-45
2022/11/03 03:02:51;;;;;;;4.40;3.43;;;8.40;91.20;;;;;;5077535;28;20517;-46
2022/11/03 03:05:19;;;;;;;6.50;4.23;;;8.40;91.20;;;;;;5060174;28;20445;-50
2022/11/03 03:07:47;;;;;;;5.60;4.23;;;8.40;91.30;;;;;;5059813;28;20693;-46
2022/11/03 03:10:17;;;;;;;5.10;3.83;;;8.40;91.30;;;;;;5078953;28;20477;-45
2022/11/03 03:12:47;;;;;;;6.30;3.97;;;8.40;91.30;;;;;;5080062;28;20461;-48
2022/11/03 03:15:14;;;;;;;4.70;3.37;;;8.40;91.30;;;;;;5063187;28;20420;-45
2022/11/03 03:17:50;;;;;;;6.73;3.87;;;8.40;91.40;;;;;;5062681;28;20467;-45
2022/11/03 03:20:33;;;;;;;5.47;4.00;;;8.40;91.40;;;;;;5062553;28;20420;-47
2022/11/03 03:23:19;;;;;;;8.10;4.60;;;8.40;91.40;;;;;;5062579;28;20439;-48
2022/11/03 03:26:06;;;;;;;6.83;3.40;;;8.30;91.30;;;;;;5080289;28;20429;-48
2022/11/03 03:28:56;;;;;;;5.03;3.30;;;8.30;91.30;;;;;;5062438;28;20419;-47
2022/11/03 03:31:25;;;;;;;4.97;3.60;;;8.30;91.30;;;;;;5062722;28;20498;-47
2022/11/03 03:33:52;;;;;;;7.17;3.80;;;8.30;91.40;;;;;;5062333;28;20894;-46
2022/11/03 03:36:19;;;;;;;5.17;3.50;;;8.20;91.40;;;;;;5080028;28;20425;-45
2022/11/03 03:38:48;;;;;;;5.70;3.57;;;8.20;91.40;;;;;;5062357;28;20432;-46
2022/11/03 03:41:20;;;;;;;4.50;3.87;;;8.20;91.40;;;;;;5061503;28;20845;-44
2022/11/03 03:43:50;;;;;;;7.40;3.50;;;8.20;91.40;;;;;;5079737;28;20421;-44
2022/11/03 03:46:17;;;;;;;10.27;3.80;;;8.20;91.50;;;;;;5079872;28;20647;-46
2022/11/03 03:48:43;;;;;;;7.27;4.10;;;8.20;91.50;;;;;;5062361;28;20616;-49
2022/11/03 03:51:10;;;;;;;4.93;3.60;;;8.20;91.50;;;;;;5079556;28;20914;-45
2022/11/03 03:53:36;;;;;;;3.57;3.03;;;8.20;91.50;;;;;;5061658;28;20178;-46
2022/11/03 03:56:04;;;;;;;4.77;3.90;;;8.10;91.50;;;;;;5078999;28;20767;-49
2022/11/03 03:58:30;;;;;;;5.47;4.13;;;8.10;91.50;;;;;;5079658;28;20226;-47
2022/11/03 04:00:55;;;;;;;6.37;3.80;;;8.10;91.40;;;;;;5079316;28;20482;-45
2022/11/03 04:03:23;;;;;;;4.40;3.90;;;8.10;91.50;;;;;;5078983;28;20184;-44
2022/11/03 04:05:50;;;;;;;8.60;4.30;;;8.10;91.50;;;;;;5077531;28;20169;-44
2022/11/03 04:08:16;;;;;;;3.90;3.50;;;8.10;91.60;;;;;;5077566;28;20705;-46
2022/11/03 04:24:24;;;;;;;6.03;4.27;;;8.00;92.00;;;;;;5077102;28;20907;-48
2022/11/03 04:26:50;;;;;;;7.47;4.40;;;8.00;91.70;;;;;;5060065;28;20447;-44
2022/11/03 04:29:16;;;;;;;5.00;4.10;;;8.00;91.80;;;;;;5078558;28;20582;-45
2022/11/03 04:31:42;;;;;;;8.20;3.90;;;8.00;91.80;;;;;;5078398;28;20422;-45
2022/11/03 04:34:11;;;;;;;5.20;3.80;;;8.00;91.90;;;;;;5078860;28;20186;-45
2022/11/03 04:36:37;;;;;;;9.40;4.20;;;8.00;91.90;;;;;;5077666;28;20173;-45
2022/11/03 04:39:17;;;;;;;4.97;4.17;;;8.00;92.00;;;;;;5078406;28;20514;-46
2022/11/03 04:41:43;;;;;;;5.70;3.70;;;8.00;91.90;;;;;;5077628;28;20201;-45
2022/11/03 04:44:14;;;;;;;7.00;4.30;;;8.00;91.90;;;;;;5076824;28;20698;-46
2022/11/03 04:46:39;;;;;;;6.50;4.00;;;7.90;91.90;;;;;;5076508;28;20187;-47
2022/11/03 04:49:11;;;;;;;5.30;4.37;;;7.90;91.90;;;;;;5057842;28;20424;-44
2022/11/03 04:51:37;;;;;;;6.47;4.20;;;7.90;91.90;;;;;;5075155;28;20189;-46
2022/11/03 04:54:03;;;;;;;6.13;4.40;;;7.90;91.90;;;;;;5076334;28;20417;-44
2022/11/03 04:56:29;;;;;;;7.70;3.90;;;7.90;91.90;;;;;;5057762;28;20296;-45
2022/11/03 04:58:57;;;;;;;5.47;4.67;;;7.90;92.00;;;;;;5075250;28;20430;-45
2022/11/03 05:01:23;;;;;;;7.00;4.70;;;7.80;92.00;;;;;;5076795;28;20254;-45
2022/11/03 05:03:52;;;;;;;6.33;4.03;;;7.80;92.10;;;;;;5058914;28;20448;-44
2022/11/03 05:06:19;;;;;;;5.40;4.20;;;7.80;92.10;;;;;;5076302;28;20425;-47
2022/11/03 05:08:48;;;;;;;5.07;4.00;;;7.80;92.10;;;;;;5076353;28;20413;-45
2022/11/03 05:11:34;;;;;;;5.30;4.03;;;7.80;92.10;;;;;;5076655;28;20480;-44
2022/11/03 05:14:03;;;;;;;5.50;4.50;;;7.80;92.10;;;;;;5059622;28;20424;-44
2022/11/03 05:16:30;;;;;;;8.37;4.53;;;7.80;92.10;;;;;;5077150;28;20437;-48
2022/11/03 05:18:55;;;;;;;6.10;4.80;;;7.80;92.10;;;;;;5076840;28;20435;-47
2022/11/03 05:21:24;;;;;;;5.23;4.47;;;7.70;92.00;;;;;;5076453;28;20473;-46
2022/11/03 05:23:52;;;;;;;6.27;4.43;;;7.70;92.00;;;;;;5057647;28;20184;-45
2022/11/03 05:26:27;;;;;;;6.77;4.20;;;7.70;92.00;;;;;;5058616;28;20415;-45
2022/11/03 05:29:15;;;;;;;5.83;4.90;;;7.70;92.00;;;;;;5076917;28;20459;-47
2022/11/03 05:31:43;;;;;;;6.50;4.90;;;7.70;92.00;;;;;;5062898;28;20431;-44
2022/11/03 05:34:50;;;;;;;4.93;4.30;;;7.70;92.00;;;;;;5060238;28;20522;-47
2022/11/03 05:37:30;;;;;;;5.83;4.40;;;7.60;91.90;;;;;;4979085;28;20933;-49
2022/11/03 05:40:06;;;;;;;6.23;4.37;;;7.60;91.90;;;;;;4996389;28;20513;-44
2022/11/03 05:42:35;;;;;;;9.13;4.67;;;7.60;91.90;;;;;;5049650;28;21035;-45
2022/11/03 05:45:31;;;;;;;4.60;4.20;;;7.60;91.80;;;;;;5059515;28;20422;-46
2022/11/03 05:47:57;;;;;;;4.20;3.80;;;7.60;91.80;;;;;;5059088;28;20435;-45
2022/11/03 05:50:24;;;;;;;5.50;4.50;;;7.50;91.80;;;;;;5076329;28;20576;-45
2022/11/03 05:53:03;;;;;;;4.53;4.07;;;7.50;91.90;;;;;;5074758;28;20439;-47
2022/11/03 05:55:31;;;;;;;6.97;5.00;;;7.50;91.90;;;;;;5057601;28;20533;-44
2022/11/03 05:58:01;;;;;;;4.90;4.07;;;7.50;91.90;;;;;;5074662;28;20510;-45
2022/11/03 06:00:28;;;;;;;5.43;4.70;;;7.50;92.00;;;;;;5057402;28;20427;-46
2022/11/03 06:02:54;;;;;;;4.90;4.40;;;7.50;92.00;;;;;;5076891;28;20467;-47
2022/11/03 06:05:23;;;;;;;7.30;5.07;;;7.50;92.00;;;;;;5082462;28;20477;-44
2022/11/03 06:07:52;;;;;;;5.63;4.33;;;7.50;92.10;;;;;;5082427;28;20506;-44
2022/11/03 06:10:35;;;;;;;5.60;4.43;;;7.40;92.00;;;;;;5083457;28;20577;-47
2022/11/03 06:13:17;;;;;;;8.80;6.17;;;7.40;92.00;;;;;;5065962;28;20419;-46
2022/11/03 06:15:45;;;;;;;6.00;4.13;;;7.30;92.00;;;;;;5064422;28;20483;-45
2022/11/03 06:18:23;;;;;;;6.10;4.97;;;7.30;92.20;;;;;;5082773;28;20446;-47
2022/11/03 06:21:01;;;;;;;8.23;5.33;;;7.20;92.40;;;;;;5083288;28;20419;-45
2022/11/03 06:23:27;;;;;;;5.93;4.67;;;7.10;92.50;;;;;;5065285;28;20558;-42
2022/11/03 06:25:55;;;;;;;7.50;5.33;;;7.10;92.60;;;;;;5081819;28;20435;-44
2022/11/03 06:28:25;;;;;;;7.57;4.70;;;7.10;92.70;;;;;;5082026;28;20238;-45
2022/11/03 06:30:51;;;;;;;6.40;5.10;;;7.10;92.80;;;;;;5065376;28;20474;-45
2022/11/03 06:33:27;;;;;;;6.47;5.43;;;7.10;92.90;;;;;;5082729;28;20717;-45
2022/11/03 06:35:58;;;;;;;5.50;4.80;;;7.10;92.90;;;;;;5062144;28;20180;-42
2022/11/03 06:38:26;;;;;;;6.63;5.27;;;7.20;93.00;;;;;;5081342;28;20408;-44
2022/11/03 06:40:52;;;;;;;6.97;5.03;;;7.20;93.00;;;;;;5065373;28;20785;-43
2022/11/03 06:43:27;;;;;;;7.83;5.40;;;7.30;93.10;;;;;;5082263;28;20485;-46
2022/11/03 06:46:01;;;;;;;12.03;4.77;;;7.40;93.10;;;;;;5081444;28;20181;-47
2022/11/03 06:48:28;;;;;;;5.87;4.67;;;7.60;93.10;;;;;;5065175;28;20426;-44
2022/11/03 06:50:55;;;;;;;8.23;5.10;;;7.70;92.90;;;;;;5082429;28;20440;-45
2022/11/03 06:53:34;;;;;;;6.37;5.40;;;8.00;92.70;;;;;;5063026;28;20428;-46
2022/11/03 06:56:00;;;;;;;6.80;4.37;;;8.20;92.50;;;;;;5063221;28;20547;-48
2022/11/03 06:58:35;;;;;;;6.33;4.87;;;8.50;92.40;;;;;;5082676;28;20577;-44
2022/11/03 07:01:24;;;;;;;5.30;4.80;;;8.80;92.20;;;;;;5063953;28;20600;-45
2022/11/03 07:03:52;;;;;;;7.27;5.27;;;9.30;91.80;;;;;;5064769;28;20447;-46
2022/11/03 07:06:25;;;;;;;7.70;5.77;;;9.70;91.40;;;;;;5080362;28;20434;-43
2022/11/03 07:08:51;;;;;;;7.57;5.67;;;10.10;90.30;;;;;;5064480;28;20407;-45
2022/11/03 07:11:24;;;;;;;5.60;4.57;;;10.50;89.60;;;;;;5064944;28;20431;-44
2022/11/03 07:13:55;;;;;;;6.87;4.83;;;10.90;88.80;;;;;;5081913;28;20844;-46
2022/11/03 07:16:32;;;;;;;5.50;4.63;;;11.20;88.10;;;;;;5061587;28;20423;-43
2022/11/03 07:18:59;;;;;;;6.80;5.33;;;11.40;87.40;;;;;;5078471;28;20438;-45
2022/11/03 07:21:42;;;;;;;6.40;5.20;;;11.50;87.20;;;;;;5078613;28;20527;-45
2022/11/03 07:24:27;;;;;;;6.97;4.93;;;11.70;87.40;;;;;;5059721;28;20550;-45
2022/11/03 07:27:14;;;;;;;6.57;4.67;;;12.00;87.30;;;;;;5076924;28;20441;-46
2022/11/03 07:29:41;;;;;;;6.90;5.00;;;12.30;86.80;;;;;;5059808;28;20449;-45
2022/11/03 07:32:18;;;;;;;6.50;4.33;;;12.60;86.40;;;;;;5060757;28;20415;-46
2022/11/03 07:34:44;;;;;;;6.47;4.80;;;12.80;86.00;;;;;;5060529;28;20424;-44
2022/11/03 07:37:23;;;;;;;6.47;5.00;;;13.00;85.80;;;;;;5061732;28;20436;-48
2022/11/03 07:39:50;;;;;;;6.20;4.40;;;13.20;85.60;;;;;;5078566;28;20439;-47
2022/11/03 07:42:23;;;;;;;6.27;4.10;;;13.40;85.20;;;;;;5045159;28;20485;-45
2022/11/03 07:44:49;;;;;;;8.23;4.27;;;13.60;84.80;;;;;;5079215;28;20401;-46
2022/11/03 07:47:24;;;;;;;6.10;4.40;;;13.70;84.50;;;;;;5077300;28;21060;-44
2022/11/03 07:49:50;;;;;;;6.00;3.10;;;13.90;84.30;;;;;;5061063;28;20756;-49
2022/11/03 07:52:20;;;;;;;8.17;4.10;;;14.10;84.20;;;;;;5044067;28;20450;-46
2022/11/03 07:54:46;;;;;;;4.53;3.80;;;14.30;84.00;;;;;;5060532;28;20175;-47
2022/11/03 07:57:16;;;;;;;5.00;4.00;;;14.40;83.50;;;;;;5077893;28;20553;-45
2022/11/03 07:59:45;;;;;;;5.80;4.00;;;14.50;83.30;;;;;;5060573;28;20539;-46
2022/11/03 08:02:36;;;;;;;6.17;3.80;;;14.60;83.00;;;;;;5060545;28;20487;-47
2022/11/03 08:05:03;;;;;;;4.87;3.37;;;14.60;82.90;;;;;;5058963;28;20428;-43
2022/11/03 08:07:28;;;;;;;5.43;4.03;;;14.60;82.70;;;;;;5075031;28;20444;-43
2022/11/03 08:09:54;;;;;;;5.73;3.57;;;14.70;82.70;;;;;;5058294;28;20987;-44
2022/11/03 08:12:20;;;;;;;6.20;3.60;;;14.80;82.70;;;;;;5075509;28;20447;-48
2022/11/03 08:14:46;;;;;;;7.30;4.03;;;15.00;82.50;;;;;;5076264;28;20281;-46
2022/11/03 08:17:13;;;;;;;4.93;3.40;;;15.30;82.00;;;;;;5076865;28;20418;-43
2022/11/03 08:19:39;;;;;;;4.30;3.90;;;15.50;81.40;;;;;;5058943;28;20240;-46
2022/11/03 08:22:04;;;;;;;6.03;3.40;;;15.60;80.60;;;;;;5077748;28;20477;-45
2022/11/03 08:24:30;;;;;;;7.67;3.90;;;15.80;80.30;;;;;;5077202;28;20218;-44
2022/11/03 08:26:55;;;;;;;8.93;3.90;;;15.90;79.80;;;;;;5076621;28;20533;-45
2022/11/03 08:29:21;;;;;;;5.20;3.77;;;16.10;79.60;;;;;;5077807;28;20188;-47
2022/11/03 08:31:47;;;;;;;5.40;4.17;;;16.20;79.40;;;;;;5078354;28;20243;-44
2022/11/03 08:34:12;;;;;;;4.30;3.13;;;16.40;78.90;;;;;;5077502;28;20445;-45
2022/11/03 08:36:38;;;;;;;8.63;4.33;;;16.50;78.60;;;;;;5076769;28;20180;-46
2022/11/03 08:39:04;;;;;;;6.33;3.40;;;16.70;77.90;;;;;;5077335;28;20185;-46
2022/11/03 08:41:30;;;;;;;6.13;3.13;;;16.90;77.20;;;;;;5077466;28;20207;-46
2022/11/03 08:43:56;;;;;;;4.77;3.30;;;17.10;76.40;;;;;;5077902;28;20666;-45
2022/11/03 08:46:21;;;;;;;4.93;3.40;;;17.30;75.40;;;;;;5076983;28;20185;-46
2022/11/03 08:48:47;;;;;;;6.10;3.00;;;17.50;74.40;;;;;;5076300;28;20179;-45
2022/11/03 08:51:14;;;;;;;5.90;3.30;;;17.60;73.60;;;;;;5076273;28;20180;-45
2022/11/03 08:53:41;;;;;;;5.37;3.53;;;17.70;73.20;;;;;;5075282;28;20189;-44
2022/11/03 08:56:07;;;;;;;4.00;2.70;;;18.00;72.40;;;;;;5074526;28;20449;-47
2022/11/03 08:58:32;;;;;;;5.63;3.50;;;18.10;71.20;;;;;;5058390;28;20423;-44
2022/11/03 09:00:58;;;;;;;6.50;2.70;;;18.30;70.20;;;;;;5075592;28;20475;-45
2022/11/03 09:03:24;;;;;;;5.90;3.30;;;18.50;69.30;;;;;;5077078;28;20181;-45
2022/11/03 09:05:49;;;;;;;3.73;2.70;;;18.60;68.70;;;;;;5075694;28;20186;-47
2022/11/03 09:08:15;;;;;;;5.30;3.20;;;19.00;67.80;;;;;;5058151;28;20449;-44
2022/11/03 09:10:41;;;;;;;5.23;3.87;;;19.30;66.60;;;;;;5075681;28;20180;-47
2022/11/03 09:13:07;;;;;;;5.37;4.07;;;19.70;65.40;;;;;;5057232;28;20420;-45
2022/11/03 09:15:34;;;;;;;4.97;2.50;;;20.10;64.00;;;;;;5074622;28;20182;-45
2022/11/03 09:18:01;;;;;;;6.77;2.93;;;20.60;61.90;;;;;;5056501;28;20729;-44
2022/11/03 09:20:27;;;;;;;4.23;2.87;;;21.00;60.60;;;;;;5074227;28;20442;-45
2022/11/03 09:22:53;;;;;;;2.43;2.10;;;21.40;59.40;;;;;;5073722;28;20484;-42
2022/11/03 09:25:19;;;;;;;4.00;2.70;;;22.00;59.80;;;;;;5074669;28;20258;-42
2022/11/03 09:27:44;;;;;;;2.67;2.03;;;22.50;62.30;;;;;;5058521;28;20239;-46
2022/11/03 09:30:10;;;;;;;3.70;1.90;;;22.70;63.10;;;;;;5075748;28;20355;-47
2022/11/03 09:32:36;;;;;;;4.33;2.70;;;22.80;63.10;;;;;;5076221;28;20552;-43
2022/11/03 09:35:03;;;;;;;4.13;2.07;;;22.70;62.20;;;;;;5076119;28;20264;-43
2022/11/03 09:37:29;;;;;;;2.90;2.17;;;22.50;61.80;;;;;;5075128;28;20458;-43
2022/11/03 09:39:55;;;;;;;4.10;2.23;;;22.20;62.10;;;;;;5076041;28;20988;-42
2022/11/03 09:42:21;;;;;;;2.87;2.10;;;22.00;62.50;;;;;;5057598;28;20591;-46
2022/11/03 09:44:48;;;;;;;5.67;2.50;;;21.80;63.00;;;;;;5056940;28;20172;-43
2022/11/03 09:47:37;;;;;;;4.20;2.53;;;21.60;62.20;;;;;;5075369;28;20468;-42
2022/11/03 09:50:04;;;;;;;4.57;2.67;;;21.30;62.30;;;;;;5076144;28;20528;-44
2022/11/03 09:52:30;;;;;;;2.97;2.30;;;21.00;63.20;;;;;;5076508;28;20515;-42
2022/11/03 09:54:56;;;;;;;3.33;2.03;;;20.80;64.50;;;;;;5075910;28;20521;-42
2022/11/03 09:57:24;;;;;;;4.60;2.60;;;20.60;65.00;;;;;;5075803;28;20803;-43
2022/11/03 09:59:50;;;;;;;5.03;2.73;;;20.40;65.70;;;;;;5056979;28;20427;-45
2022/11/03 10:02:37;;;;;;;3.77;2.40;;;20.10;65.80;;;;;;5057081;28;20940;-44
2022/11/03 10:05:03;;;;;;;4.23;2.40;;;19.90;67.10;;;;;;5075624;28;20522;-44
2022/11/03 10:07:30;;;;;;;2.50;2.10;;;19.70;68.10;;;;;;5075647;28;20423;-49
2022/11/03 10:09:57;;;;;;;3.83;2.40;;;19.60;69.10;;;;;;5075028;28;20843;-43
2022/11/03 10:12:23;;;;;;;3.40;2.27;;;19.50;69.70;;;;;;5057775;28;20423;-44
2022/11/03 10:14:50;;;;;;;3.13;2.60;;;19.40;70.10;;;;;;5075390;28;20451;-46
2022/11/03 10:17:19;;;;;;;5.03;2.23;;;19.40;70.40;;;;;;5075567;28;20431;-46
2022/11/03 10:19:48;;;;;;;5.30;2.77;;;19.30;70.50;;;;;;5076026;28;20426;-45
2022/11/03 10:22:14;;;;;;;3.17;2.40;;;19.30;70.40;;;;;;5058990;28;20546;-44
2022/11/03 10:24:40;;;;;;;3.60;2.53;;;19.30;70.40;;;;;;5076493;28;20816;-46
2022/11/03 10:27:24;;;;;;;2.73;2.37;;;19.20;70.10;;;;;;5075934;28;20422;-45
2022/11/03 10:30:10;;;;;;;4.03;2.77;;;19.20;70.10;;;;;;5075381;28;20234;-42
2022/11/03 10:32:37;;;;;;;3.50;3.03;;;19.10;70.20;;;;;;5075561;28;20445;-46
2022/11/03 10:35:23;;;;;;;4.43;3.27;;;19.10;69.50;;;;;;5086265;28;20874;-46
2022/11/03 10:37:48;;;;;;;3.00;2.40;;;19.00;69.30;;;;;;5096633;28;20446;-44
2022/11/03 10:40:34;;;;;;;4.40;3.13;;;19.10;69.60;;;;;;5078303;28;20431;-43
2022/11/03 10:43:00;;;;;;;3.33;2.90;;;19.20;69.40;;;;;;5096407;28;20219;-49
2022/11/03 10:45:25;;;;;;;4.47;3.70;;;19.50;68.80;;;;;;5094830;28;20432;-44
2022/11/03 10:48:04;;;;;;;5.60;3.93;;;19.70;67.40;;;;;;5095087;28;20181;-43
2022/11/03 10:50:29;;;;;;;3.13;2.83;;;20.00;66.80;;;;;;5096223;28;20549;-45
2022/11/03 10:52:55;;;;;;;4.87;3.40;;;20.50;66.20;;;;;;5080779;28;20487;-45
2022/11/03 10:55:23;;;;;;;5.27;3.47;;;20.80;63.80;;;;;;5081764;28;20526;-43
2022/11/03 10:57:48;;;;;;;5.20;3.80;;;21.00;62.40;;;;;;5081289;28;20474;-43
2022/11/03 11:00:15;;;;;;;5.40;3.20;;;21.10;61.10;;;;;;5082391;28;20437;-43
2022/11/03 11:02:48;;;;;;;3.60;3.20;;;21.10;61.00;;;;;;5080821;28;20224;-43
2022/11/03 11:05:20;;;;;;;6.43;3.47;;;21.10;61.10;;;;;;5081675;28;20450;-45
2022/11/03 11:07:46;;;;;;;3.67;3.37;;;20.90;61.00;;;;;;5098665;28;20475;-44
2022/11/03 11:10:18;;;;;;;8.50;3.50;;;20.70;61.10;;;;;;5098837;28;20418;-43
2022/11/03 11:13:05;;;;;;;3.20;2.90;;;20.60;61.40;;;;;;5082283;28;20443;-45
2022/11/03 11:16:00;;;;;;;9.40;3.47;;;20.40;62.00;;;;;;5100802;28;20716;-43
2022/11/03 11:18:30;;;;;;;7.73;3.40;;;20.40;62.40;;;;;;5061355;28;20701;-45
2022/11/03 11:21:14;;;;;;;5.20;2.83;;;20.40;62.60;;;;;;5098397;28;20429;-44
2022/11/03 11:23:40;;;;;;;4.03;3.07;;;20.60;62.80;;;;;;5098970;28;20424;-45
2022/11/03 11:26:08;;;;;;;6.60;3.40;;;20.70;62.20;;;;;;5099724;28;20451;-47
2022/11/03 11:28:43;;;;;;;5.57;3.63;;;20.80;61.20;;;;;;5099242;28;20489;-45
2022/11/03 11:31:29;;;;;;;4.97;3.07;;;20.80;61.60;;;;;;5081122;28;20444;-45
2022/11/03 11:34:19;;;;;;;3.90;3.00;;;20.70;61.20;;;;;;5080721;28;20429;-44
2022/11/03 11:36:56;;;;;;;4.00;3.00;;;20.70;61.20;;;;;;5097647;28;20828;-44
2022/11/03 11:39:27;;;;;;;6.97;3.67;;;20.70;61.20;;;;;;5098576;28;20414;-45
2022/11/03 11:42:12;;;;;;;4.53;3.10;;;20.70;61.20;;;;;;5099502;28;20474;-46
2022/11/03 11:44:53;;;;;;;3.10;2.60;;;20.60;61.90;;;;;;5098552;28;20415;-44
2022/11/03 11:47:45;;;;;;;6.13;2.90;;;20.50;61.60;;;;;;5099161;28;20446;-43
2022/11/03 11:50:21;;;;;;;4.30;3.00;;;20.50;62.10;;;;;;5080604;28;20506;-43
2022/11/03 11:53:05;;;;;;;4.40;3.00;;;20.50;61.80;;;;;;5080949;28;20433;-45
2022/11/03 11:55:47;;;;;;;3.57;3.10;;;20.50;62.30;;;;;;5098482;28;20419;-43
2022/11/03 11:58:21;;;;;;;3.00;2.70;;;20.40;62.40;;;;;;5098298;28;20476;-44
2022/11/03 12:00:54;;;;;;;4.00;2.80;;;20.40;62.80;;;;;;5062733;28;20434;-45
2022/11/03 12:03:24;;;;;;;6.77;3.37;;;20.30;62.60;;;;;;5096495;28;20571;-45
2022/11/03 12:05:50;;;;;;;3.80;3.00;;;20.20;61.40;;;;;;5096116;28;20430;-45
2022/11/03 12:08:23;;;;;;;3.00;2.57;;;20.10;60.30;;;;;;5096982;28;20851;-45
2022/11/03 12:10:53;;;;;;;6.83;3.13;;;20.00;59.70;;;;;;5096122;28;20307;-45
2022/11/03 12:13:45;;;;;;;5.90;3.53;;;19.80;59.50;;;;;;5097605;28;20442;-43
2022/11/03 12:16:31;;;;;;;4.37;3.00;;;19.60;59.60;;;;;;5096701;28;20424;-43
2022/11/03 12:19:07;;;;;;;4.33;2.77;;;19.40;59.90;;;;;;5097741;28;20741;-43
2022/11/03 12:21:47;;;;;;;5.80;3.27;;;19.20;60.30;;;;;;5093686;28;20822;-43
2022/11/03 12:24:32;;;;;;;3.30;2.70;;;18.90;60.80;;;;;;5097923;28;20423;-43
2022/11/03 12:27:02;;;;;;;3.37;3.00;;;18.80;61.20;;;;;;5097277;28;20471;-42
2022/11/03 12:29:28;;;;;;;3.90;3.13;;;18.60;61.50;;;;;;5097614;28;20747;-44
2022/11/03 12:31:54;;;;;;;3.73;3.33;;;18.40;61.90;;;;;;5097929;28;20520;-43
2022/11/03 12:34:20;;;;;;;5.60;2.63;;;18.30;62.30;;;;;;5097925;28;20430;-45
2022/11/03 12:36:45;;;;;;;5.40;3.17;;;18.30;62.80;;;;;;5098558;28;20457;-44
2022/11/03 12:39:12;;;;;;;7.20;3.30;;;18.20;63.00;;;;;;5098112;28;20186;-45
2022/11/03 12:41:37;;;;;;;4.63;2.93;;;18.20;63.30;;;;;;5098510;28;20222;-46
2022/11/03 12:44:03;;;;;;;5.13;3.23;;;18.10;63.50;;;;;;5097276;28;20417;-44
2022/11/03 12:46:29;;;;;;;3.97;2.83;;;18.10;63.90;;;;;;5095135;28;20686;-43
2022/11/03 12:48:55;;;;;;;4.20;2.90;;;18.00;64.20;;;;;;5096349;28;20186;-45
2022/11/03 12:51:24;;;;;;;4.30;3.83;;;17.80;64.50;;;;;;5078206;28;20187;-44
2022/11/03 12:53:50;;;;;;;4.77;3.27;;;17.80;65.10;;;;;;5078720;28;20184;-44
2022/11/03 12:56:17;;;;;;;3.43;3.13;;;17.70;65.50;;;;;;5096303;28;20424;-45
2022/11/03 12:58:42;;;;;;;5.23;3.50;;;17.60;65.90;;;;;;5096054;28;20859;-48
2022/11/03 13:01:08;;;;;;;5.37;3.50;;;17.50;66.30;;;;;;5096501;28;20627;-43
2022/11/03 13:03:35;;;;;;;4.90;3.80;;;17.50;66.80;;;;;;5096458;28;20210;-45
2022/11/03 13:06:03;;;;;;;4.07;3.53;;;17.40;67.10;;;;;;5096192;28;20426;-44
2022/11/03 13:08:32;;;;;;;4.03;3.20;;;17.30;67.50;;;;;;5078633;28;20428;-45
2022/11/03 13:10:58;;;;;;;3.70;3.30;;;17.30;67.90;;;;;;5095994;28;20439;-45
2022/11/03 13:13:24;;;;;;;4.80;3.50;;;17.20;68.20;;;;;;5095615;28;20413;-44
2022/11/03 13:15:51;;;;;;;4.97;3.30;;;17.20;68.60;;;;;;5079160;28;20519;-47
2022/11/03 13:18:18;;;;;;;4.50;3.80;;;17.20;68.70;;;;;;5095225;28;20251;-43
2022/11/03 13:20:44;;;;;;;4.47;3.53;;;17.20;68.80;;;;;;5094591;28;20720;-44
2022/11/03 13:23:10;;;;;;;5.60;3.27;;;17.20;69.00;;;;;;5078081;28;20491;-50
2022/11/03 13:25:36;;;;;;;5.13;3.47;;;17.20;69.20;;;;;;5096623;28;20847;-45
2022/11/03 13:28:02;;;;;;;6.07;3.30;;;17.20;69.40;;;;;;5096811;28;20459;-45
2022/11/03 13:30:29;;;;;;;3.50;3.13;;;17.20;69.60;;;;;;5079426;28;20199;-44
2022/11/03 13:32:55;;;;;;;3.30;3.00;;;17.20;69.80;;;;;;5096967;28;20418;-44